createdAt,value
2022-12-08T00:01:39.692Z,98635.55
2022-12-08T00:04:27.754Z,98633.37
2022-12-08T00:07:34.529Z,98641.19
2022-12-08T00:10:48.049Z,98642.94
2022-12-08T00:13:30.615Z,98646.07
2022-12-08T00:16:18.546Z,98650.15
2022-12-08T00:19:06.122Z,98648.86
2022-12-08T00:21:55.402Z,98650.38
2022-12-08T00:24:47.627Z,98655.15
2022-12-08T00:27:35.588Z,98663.17
2022-12-08T00:30:23.317Z,98667.45
2022-12-08T00:33:12.366Z,98664.69
2022-12-08T00:36:09.884Z,98661.86
2022-12-08T00:38:58.843Z,98670.55
2022-12-08T00:42:05.114Z,98677.20
2022-12-08T00:44:54.926Z,98682.55
2022-12-08T00:47:42.767Z,98687.47
2022-12-08T00:50:30.627Z,98685.88
2022-12-08T00:53:18.043Z,98690.04
2022-12-08T00:56:06.115Z,98691.08
2022-12-08T00:58:54.080Z,98696.23
2022-12-08T01:01:45.495Z,98697.17
2022-12-08T01:04:33.543Z,98699.69
2022-12-08T01:07:21.466Z,98703.58
2022-12-08T01:10:09.775Z,98705.34
2022-12-08T01:12:59.169Z,98702.84
2022-12-08T01:15:47.005Z,98705.83
2022-12-08T01:18:35.556Z,98705.63
2022-12-08T01:21:23.247Z,98711.37
2022-12-08T01:24:19.380Z,98713.48
2022-12-08T01:27:08.184Z,98717.30
2022-12-08T01:29:56.204Z,98720.88
2022-12-08T01:32:44.353Z,98719.54
2022-12-08T01:35:34.063Z,98726.02
2022-12-08T01:38:22.886Z,98724.78
2022-12-08T01:41:16.334Z,98730.84
2022-12-08T01:44:08.356Z,98735.27
2022-12-08T01:46:56.651Z,98736.77
2022-12-08T01:49:44.565Z,98738.36
2022-12-08T01:52:50.355Z,98741.39
2022-12-08T01:55:52.603Z,98742.92
2022-12-08T01:58:49.167Z,98747.46
2022-12-08T02:01:36.749Z,98752.67
2022-12-08T02:04:24.501Z,98752.05
2022-12-08T02:07:14.030Z,98754.04
2022-12-08T02:10:04.318Z,98754.34
2022-12-08T02:12:56.310Z,98754.42
2022-12-08T02:16:35.492Z,98756.14
2022-12-08T02:20:06.582Z,98755.54
2022-12-08T02:23:32.111Z,98760.35
2022-12-08T02:26:56.998Z,98758.70
2022-12-08T02:30:20.041Z,98754.35
2022-12-08T02:33:45.297Z,98752.55
2022-12-08T02:36:44.007Z,98760.20
2022-12-08T02:40:13.231Z,98764.05
2022-12-08T02:43:37.473Z,98756.30
2022-12-08T02:46:34.469Z,98753.59
2022-12-08T02:49:21.904Z,98757.69
2022-12-08T02:52:12.522Z,98757.06
2022-12-08T02:55:09.125Z,98759.04
2022-12-08T02:58:38.957Z,98757.32
2022-12-08T03:01:29.694Z,98765.47
2022-12-08T03:04:40.206Z,98765.88
2022-12-08T03:07:37.506Z,98768.40
2022-12-08T03:11:09.319Z,98767.91
2022-12-08T03:14:02.636Z,98768.63
2022-12-08T03:16:58.645Z,98764.95
2022-12-08T03:19:49.047Z,98765.14
2022-12-08T03:22:39.633Z,98763.15
2022-12-08T03:25:32.394Z,98760.94
2022-12-08T03:28:20.414Z,98759.23
2022-12-08T03:31:12.370Z,98758.51
2022-12-08T03:34:02.914Z,98761.59
2022-12-08T03:36:50.636Z,98766.55
2022-12-08T03:39:38.351Z,98765.94
2022-12-08T03:42:26.118Z,98768.58
2022-12-08T03:45:14.034Z,98778.02
2022-12-08T03:48:01.574Z,98781.73
2022-12-08T03:50:49.302Z,98782.06
2022-12-08T03:53:37.839Z,98783.17
2022-12-08T03:56:34.525Z,98781.17
2022-12-08T03:59:22.352Z,98782.73
2022-12-08T04:02:10.175Z,98782.46
2022-12-08T04:04:57.900Z,98778.23
2022-12-08T04:07:45.399Z,98778.99
2022-12-08T04:10:33.187Z,98784.87
2022-12-08T04:13:20.885Z,98793.23
2022-12-08T04:16:09.187Z,98789.75
2022-12-08T04:18:57.071Z,98789.72
2022-12-08T04:21:44.726Z,98793.52
2022-12-08T04:24:32.601Z,98789.90
2022-12-08T04:27:19.944Z,98787.79
2022-12-08T04:30:08.504Z,98793.85
2022-12-08T04:32:56.314Z,98792.14
2022-12-08T04:35:44.245Z,98791.92
2022-12-08T04:38:33.702Z,98790.96
2022-12-08T04:41:21.395Z,98799.34
2022-12-08T04:44:09.297Z,98803.22
2022-12-08T04:46:57.122Z,98797.08
2022-12-08T04:49:48.187Z,98803.06
2022-12-08T04:52:36.689Z,98803.19
2022-12-08T04:55:24.413Z,98799.77
2022-12-08T04:58:17.696Z,98798.77
2022-12-08T05:01:07.347Z,98794.58
2022-12-08T05:03:54.879Z,98792.27
2022-12-08T05:06:42.759Z,98788.99
2022-12-08T05:09:30.838Z,98793.81
2022-12-08T05:12:18.503Z,98800.48
2022-12-08T05:15:07.310Z,98801.87
2022-12-08T05:17:56.487Z,98807.11
2022-12-08T05:20:44.626Z,98811.63
2022-12-08T05:23:32.987Z,98814.13
2022-12-08T05:26:20.725Z,98819.23
2022-12-08T05:29:08.447Z,98820.23
2022-12-08T05:31:55.945Z,98821.46
2022-12-08T05:34:43.542Z,98823.86
2022-12-08T05:37:31.439Z,98821.55
2022-12-08T05:40:19.226Z,98825.44
2022-12-08T05:43:07.599Z,98827.74
2022-12-08T05:45:55.413Z,98826.79
2022-12-08T05:48:43.632Z,98830.58
2022-12-08T05:51:31.806Z,98835.27
2022-12-08T05:54:19.538Z,98842.58
2022-12-08T05:57:07.173Z,98848.46
2022-12-08T05:59:54.557Z,98854.92
2022-12-08T06:02:42.463Z,98858.94
2022-12-08T06:05:33.223Z,98857.31
2022-12-08T06:08:20.930Z,98858.42
2022-12-08T06:11:09.075Z,98856.09
2022-12-08T06:13:57.875Z,98860.77
2022-12-08T06:16:45.844Z,98863.16
2022-12-08T06:19:33.813Z,98864.55
2022-12-08T06:22:21.512Z,98865.61
2022-12-08T06:25:10.455Z,98871.33
2022-12-08T06:27:58.406Z,98873.83
2022-12-08T06:30:46.166Z,98877.80
2022-12-08T06:33:33.792Z,98880.38
2022-12-08T06:36:25.992Z,98881.68
2022-12-08T06:39:13.959Z,98882.38
2022-12-08T06:42:19.965Z,98883.83
2022-12-08T06:45:09.489Z,98888.13
2022-12-08T06:47:57.165Z,98888.77
2022-12-08T06:50:45.604Z,98886.33
2022-12-08T06:53:33.262Z,98887.92
2022-12-08T06:56:22.484Z,98890.52
2022-12-08T06:59:10.486Z,98888.34
2022-12-08T07:01:58.548Z,98891.90
2022-12-08T07:04:46.536Z,98894.50
2022-12-08T07:07:34.217Z,98895.70
2022-12-08T07:10:21.950Z,98904.34
2022-12-08T07:13:09.482Z,98907.92
2022-12-08T07:15:57.278Z,98918.10
2022-12-08T07:18:45.114Z,98921.50
2022-12-08T07:21:33.019Z,98925.01
2022-12-08T07:24:20.713Z,98931.08
2022-12-08T07:27:08.615Z,98938.90
2022-12-08T07:29:56.386Z,98939.98
2022-12-08T07:32:44.052Z,98941.38
2022-12-08T07:35:34.715Z,98947.25
2022-12-08T07:38:25.348Z,98944.97
2022-12-08T07:41:19.262Z,98948.98
2022-12-08T07:44:06.936Z,98946.27
2022-12-08T07:46:54.526Z,98950.70
2022-12-08T07:49:42.320Z,98949.63
2022-12-08T07:52:29.885Z,98949.58
2022-12-08T07:55:17.933Z,98948.85
2022-12-08T07:58:06.505Z,98948.83
2022-12-08T08:00:54.616Z,98947.45
2022-12-08T08:03:42.450Z,98948.27
2022-12-08T08:06:32.273Z,98952.11
2022-12-08T08:09:20.087Z,98957.32
2022-12-08T08:12:30.242Z,98957.86
2022-12-08T08:15:17.944Z,98962.33
2022-12-08T08:18:05.906Z,98963.27
2022-12-08T08:20:53.520Z,98963.06
2022-12-08T08:23:41.316Z,98969.96
2022-12-08T08:26:28.879Z,98975.02
2022-12-08T08:29:16.475Z,98980.73
2022-12-08T08:32:04.564Z,98982.59
2022-12-08T08:34:52.564Z,98985.07
2022-12-08T08:37:43.154Z,98989.56
2022-12-08T08:40:35.593Z,98991.83
2022-12-08T08:43:32.926Z,98998.46
2022-12-08T08:46:25.407Z,99011.08
2022-12-08T08:49:13.497Z,99019.23
2022-12-08T08:52:01.303Z,99020.40
2022-12-08T08:54:49.144Z,99026.95
2022-12-08T08:57:37.025Z,99023.85
2022-12-08T09:00:24.800Z,99030.36
2022-12-08T09:03:13.838Z,99029.48
2022-12-08T09:06:01.931Z,99028.79
2022-12-08T09:08:50.142Z,99028.55
2022-12-08T09:11:38.368Z,99038.88
2022-12-08T09:14:26.191Z,99035.27
2022-12-08T09:17:14.043Z,99036.22
2022-12-08T09:20:02.383Z,99034.10
2022-12-08T09:22:50.193Z,99031.61
2022-12-08T09:25:37.645Z,99025.91
2022-12-08T09:28:25.258Z,99022.26
2022-12-08T09:31:14.655Z,99016.52
2022-12-08T09:34:04.663Z,99018.14
2022-12-08T09:36:52.396Z,99014.15
2022-12-08T09:39:40.107Z,99009.75
2022-12-08T09:43:11.282Z,99004.55
2022-12-08T09:45:59.468Z,99004.49
2022-12-08T09:48:57.383Z,99007.45
2022-12-08T09:51:48.553Z,99003.17
2022-12-08T09:54:36.219Z,98999.23
2022-12-08T09:57:25.031Z,98997.81
2022-12-08T10:00:14.481Z,98996.17
2022-12-08T10:03:02.111Z,98988.98
2022-12-08T10:06:21.909Z,98988.95
2022-12-08T10:09:22.621Z,98994.11
2022-12-08T10:12:19.717Z,98995.88
2022-12-08T10:15:32.347Z,98988.77
2022-12-08T10:18:33.601Z,98987.39
2022-12-08T10:21:26.074Z,98982.20
2022-12-08T10:24:39.598Z,98987.77
2022-12-08T10:27:28.286Z,98986.42
2022-12-08T10:30:19.349Z,98982.66
2022-12-08T10:33:14.644Z,98984.51
2022-12-08T10:36:04.928Z,98976.23
2022-12-08T10:38:52.751Z,98972.88
2022-12-08T10:41:40.602Z,98972.55
2022-12-08T10:44:28.917Z,98971.24
2022-12-08T10:47:20.482Z,98973.65
2022-12-08T10:50:55.703Z,98976.08
2022-12-08T10:53:46.972Z,98970.66
2022-12-08T10:56:34.833Z,98976.09
2022-12-08T10:59:25.689Z,98978.85
2022-12-08T11:02:20.856Z,98985.19
2022-12-08T11:05:16.706Z,98970.16
2022-12-08T11:08:06.083Z,98963.77
2022-12-08T11:10:53.745Z,98970.25
2022-12-08T11:13:42.424Z,98972.14
2022-12-08T11:16:30.150Z,98971.21
2022-12-08T11:19:20.266Z,98967.66
2022-12-08T11:22:53.069Z,98962.92
2022-12-08T11:25:40.994Z,98955.33
2022-12-08T11:28:29.327Z,98948.19
2022-12-08T11:31:44.493Z,98947.57
2022-12-08T11:34:45.391Z,98950.23
2022-12-08T11:37:41.126Z,98944.34
2022-12-08T11:40:37.492Z,98940.73
2022-12-08T11:43:55.789Z,98940.81
2022-12-08T11:47:10.873Z,98934.50
2022-12-08T11:50:19.554Z,98941.52
2022-12-08T11:53:18.765Z,98944.59
2022-12-08T11:56:18.180Z,98944.30
2022-12-08T11:59:34.813Z,98945.45
2022-12-08T12:02:28.967Z,98947.83
2022-12-08T12:06:08.663Z,98942.30
2022-12-08T12:09:17.917Z,98934.81
2022-12-08T12:12:16.791Z,98932.05
2022-12-08T12:15:51.673Z,98936.60
2022-12-08T12:18:52.078Z,98930.85
2022-12-08T12:21:45.620Z,98932.71
2022-12-08T12:24:38.253Z,98931.52
2022-12-08T12:27:36.830Z,98931.58
2022-12-08T12:30:28.028Z,98926.48
2022-12-08T12:33:17.945Z,98925.58
2022-12-08T12:36:09.299Z,98925.23
2022-12-08T12:39:04.319Z,98922.95
2022-12-08T12:42:01.910Z,98922.71
2022-12-08T12:45:12.469Z,98919.23
2022-12-08T12:48:00.217Z,98918.15
2022-12-08T12:50:50.686Z,98916.34
2022-12-08T12:53:38.258Z,98918.66
2022-12-08T12:57:10.486Z,98914.15
2022-12-08T13:00:01.091Z,98924.03
2022-12-08T13:02:50.844Z,98920.56
2022-12-08T13:05:53.053Z,98918.15
2022-12-08T13:08:51.105Z,98915.60
2022-12-08T13:11:56.107Z,98910.21
2022-12-08T13:14:51.337Z,98910.86
2022-12-08T13:17:45.182Z,98908.89
2022-12-08T13:20:45.902Z,98913.17
2022-12-08T13:23:36.836Z,98913.63
2022-12-08T13:26:27.120Z,98917.02
2022-12-08T13:29:26.207Z,98917.41
2022-12-08T13:32:13.890Z,98915.62
2022-12-08T13:35:04.366Z,98911.63
2022-12-08T13:37:55.167Z,98913.52
2022-12-08T13:40:44.820Z,98915.49
2022-12-08T13:47:33.306Z,98916.88
2022-12-08T13:57:10.804Z,98909.89
2022-12-08T14:00:14.821Z,98911.88
2022-12-08T14:03:02.522Z,98914.64
2022-12-08T14:06:17.897Z,98910.45
2022-12-08T14:09:08.706Z,98908.86
2022-12-08T14:12:20.895Z,98907.08
2022-12-08T14:15:13.876Z,98911.27
2022-12-08T14:18:01.825Z,98908.55
2022-12-08T14:21:20.276Z,98905.88
2022-12-08T14:24:11.335Z,98903.91
2022-12-08T14:27:05.622Z,98907.91
2022-12-08T14:30:00.153Z,98899.94
2022-12-08T14:32:54.616Z,98893.15
2022-12-08T14:35:42.966Z,98879.66
2022-12-08T14:38:30.648Z,98866.42
2022-12-08T14:41:27.179Z,98869.02
2022-12-08T14:44:24.713Z,98871.16
2022-12-08T14:47:21.094Z,98867.83
2022-12-08T14:50:59.983Z,98864.93
2022-12-08T14:54:15.448Z,98870.56
2022-12-08T14:57:03.742Z,98873.98
2022-12-08T14:59:51.785Z,98876.05
2022-12-08T15:02:46.751Z,98882.38
2022-12-08T15:05:34.523Z,98879.66
2022-12-08T15:08:22.695Z,98870.86
2022-12-08T15:11:32.289Z,98862.61
2022-12-08T15:14:35.265Z,98862.56
2022-12-08T15:17:42.828Z,98866.38
2022-12-08T15:20:44.297Z,98866.61
2022-12-08T15:23:42.663Z,98865.43
2022-12-08T15:26:39.193Z,98870.77
2022-12-08T15:29:29.525Z,98871.70
2022-12-08T15:32:22.989Z,98874.16
2022-12-08T15:35:16.634Z,98873.20
2022-12-08T15:38:05.826Z,98875.41
2022-12-08T15:40:54.508Z,98873.58
2022-12-08T15:43:42.570Z,98868.48
2022-12-08T15:46:30.578Z,98863.17
2022-12-08T15:49:23.144Z,98864.50
2022-12-08T15:52:24.328Z,98863.54
2022-12-08T15:55:14.715Z,98867.79
2022-12-08T15:58:52.578Z,98865.84
2022-12-08T16:01:10.822Z,98862.27
2022-12-08T16:07:21.460Z,98859.42
2022-12-08T16:11:00.704Z,98856.48
2022-12-08T16:14:19.877Z,98864.96
2022-12-08T16:17:00.286Z,98865.30
2022-12-08T16:19:47.766Z,98860.66
2022-12-08T16:26:16.443Z,98855.98
2022-12-08T16:28:54.504Z,98860.92
2022-12-08T16:31:43.118Z,98863.35
2022-12-08T16:34:30.916Z,98858.95
2022-12-08T16:37:22.012Z,98856.82
2022-12-08T16:40:12.402Z,98851.14
2022-12-08T16:43:00.400Z,98850.54
2022-12-08T16:45:47.832Z,98848.65
2022-12-08T16:48:35.958Z,98846.21
2022-12-08T16:51:27.060Z,98845.79
2022-12-08T16:54:46.816Z,98842.71
2022-12-08T16:57:40.138Z,98846.92
2022-12-08T17:00:30.970Z,98844.96
2022-12-08T17:03:19.026Z,98844.50
2022-12-08T17:06:16.905Z,98846.68
2022-12-08T17:09:04.996Z,98849.30
2022-12-08T17:11:52.933Z,98851.66
2022-12-08T17:14:40.760Z,98853.27
2022-12-08T17:17:28.821Z,98854.85
2022-12-08T17:20:27.514Z,98855.27
2022-12-08T17:23:15.291Z,98850.93
2022-12-08T17:26:04.113Z,98852.38
2022-12-08T17:29:00.636Z,98858.59
2022-12-08T17:31:49.531Z,98861.09
2022-12-08T17:34:37.783Z,98859.27
2022-12-08T17:37:26.359Z,98861.63
2022-12-08T17:40:14.136Z,98861.52
2022-12-08T17:43:02.217Z,98859.70
2022-12-08T17:45:50.249Z,98862.64
2022-12-08T17:48:38.019Z,98862.62
2022-12-08T17:51:25.721Z,98857.14
2022-12-08T17:54:15.728Z,98855.27
2022-12-08T17:57:08.607Z,98854.08
2022-12-08T18:00:12.843Z,98861.70
2022-12-08T18:03:04.938Z,98861.49
2022-12-08T18:05:57.784Z,98863.58
2022-12-08T18:08:53.917Z,98860.54
2022-12-08T18:11:46.589Z,98857.55
2022-12-08T18:14:38.782Z,98863.40
2022-12-08T18:17:26.622Z,98869.98
2022-12-08T18:20:15.708Z,98868.34
2022-12-08T18:23:07.527Z,98866.84
2022-12-08T18:25:55.393Z,98862.92
2022-12-08T18:28:43.597Z,98867.44
2022-12-08T18:31:31.711Z,98877.20
2022-12-08T18:34:22.358Z,98881.10
2022-12-08T18:37:12.600Z,98878.25
2022-12-08T18:40:05.930Z,98877.86
2022-12-08T18:42:59.012Z,98881.05
2022-12-08T18:46:17.558Z,98879.09
2022-12-08T18:49:13.684Z,98881.82
2022-12-08T18:52:01.596Z,98882.09
2022-12-08T18:55:09.065Z,98870.01
2022-12-08T18:58:24.493Z,98876.27
2022-12-08T19:01:17.833Z,98881.88
2022-12-08T19:07:30.775Z,98882.64
2022-12-08T19:10:34.211Z,98885.27
2022-12-08T19:13:35.059Z,98881.64
2022-12-08T19:16:32.389Z,98884.47
2022-12-08T19:19:21.601Z,98890.99
2022-12-08T19:22:09.588Z,98890.45
2022-12-08T19:24:57.036Z,98894.54
2022-12-08T19:27:45.789Z,98891.70
2022-12-08T19:30:33.746Z,98883.59
2022-12-08T19:33:21.778Z,98886.75
2022-12-08T19:36:15.471Z,98889.27
2022-12-08T19:39:23.640Z,98900.58
2022-12-08T19:42:39.150Z,98901.30
2022-12-08T19:45:27.753Z,98904.00
2022-12-08T19:48:15.817Z,98909.89
2022-12-08T19:51:04.675Z,98908.66
2022-12-08T19:53:52.824Z,98916.27
2022-12-08T19:56:41.092Z,98921.97
2022-12-08T19:59:30.393Z,98924.27
2022-12-08T20:02:18.786Z,98926.79
2022-12-08T20:05:08.641Z,98929.25
2022-12-08T20:07:57.177Z,98931.21
2022-12-08T20:10:45.490Z,98932.88
2022-12-08T20:13:46.023Z,98938.99
2022-12-08T20:16:34.868Z,98948.28
2022-12-08T20:19:22.661Z,98949.35
2022-12-08T20:22:10.468Z,98954.36
2022-12-08T20:25:00.890Z,98955.38
2022-12-08T20:27:48.917Z,98951.96
2022-12-08T20:31:17.857Z,98951.17
2022-12-08T20:34:00.883Z,98951.09
2022-12-08T20:36:48.932Z,98952.05
2022-12-08T20:39:36.948Z,98953.34
2022-12-08T20:42:28.309Z,98958.05
2022-12-08T20:45:16.374Z,98965.73
2022-12-08T20:48:07.341Z,98972.44
2022-12-08T20:50:55.373Z,98977.96
2022-12-08T20:53:55.047Z,98982.24
2022-12-08T20:56:58.511Z,98983.63
2022-12-08T20:59:46.342Z,98985.85
2022-12-08T21:02:34.207Z,98988.01
2022-12-08T21:05:22.234Z,98989.27
2022-12-08T21:08:10.164Z,98991.80
2022-12-08T21:11:01.702Z,98999.62
2022-12-08T21:13:49.460Z,99004.58
2022-12-08T21:16:37.528Z,99004.62
2022-12-08T21:19:25.287Z,99008.24
2022-12-08T21:22:14.347Z,99012.00
2022-12-08T21:25:02.318Z,99015.18
2022-12-08T21:27:50.760Z,99014.11
2022-12-08T21:30:40.782Z,99019.20
2022-12-08T21:33:32.197Z,99020.09
2022-12-08T21:36:24.291Z,99023.55
2022-12-08T21:39:13.436Z,99028.63
2022-12-08T21:42:34.392Z,99030.63
2022-12-08T21:45:25.126Z,99033.29
2022-12-08T21:48:13.361Z,99029.45
2022-12-08T21:51:05.807Z,99031.11
2022-12-08T21:55:07.534Z,99034.56
2022-12-08T21:58:03.697Z,99035.14
2022-12-08T22:00:57.583Z,99037.17
2022-12-08T22:03:45.479Z,99038.38
2022-12-08T22:06:33.386Z,99035.13
2022-12-08T22:09:21.683Z,99038.13
2022-12-08T22:12:11.868Z,99033.98
2022-12-08T22:15:00.195Z,99035.17
2022-12-08T22:17:48.165Z,99036.09
2022-12-08T22:20:40.865Z,99036.40
2022-12-08T22:23:31.257Z,99038.24
2022-12-08T22:26:19.305Z,99044.65
2022-12-08T22:29:07.232Z,99046.60
2022-12-08T22:31:55.358Z,99053.33
2022-12-08T22:34:43.108Z,99056.21
2022-12-08T22:37:30.529Z,99055.66
2022-12-08T22:40:18.599Z,99053.70
2022-12-08T22:43:06.190Z,99056.83
2022-12-08T22:45:53.736Z,99058.66
2022-12-08T22:48:42.244Z,99065.34
2022-12-08T22:51:30.350Z,99071.16
2022-12-08T22:54:19.055Z,99073.20
2022-12-08T22:57:06.792Z,99076.06
2022-12-08T22:59:54.391Z,99079.86
2022-12-08T23:02:49.336Z,99079.17
2022-12-08T23:05:41.623Z,99083.20
2022-12-08T23:08:29.431Z,99084.81
2022-12-08T23:11:18.515Z,99086.60
2022-12-08T23:14:06.075Z,99085.83
2022-12-08T23:16:53.797Z,99086.42
2022-12-08T23:19:41.493Z,99083.66
2022-12-08T23:22:46.838Z,99088.59
2022-12-08T23:25:52.285Z,99086.94
2022-12-08T23:28:39.865Z,99084.02
2022-12-08T23:31:28.070Z,99084.61
2022-12-08T23:34:15.872Z,99085.64
2022-12-08T23:37:03.146Z,99088.23
2022-12-08T23:39:51.212Z,99093.43
2022-12-08T23:42:38.946Z,99092.93
2022-12-08T23:45:26.929Z,99096.09
2022-12-08T23:48:14.523Z,99097.73
2022-12-08T23:51:01.985Z,99100.39
2022-12-08T23:53:50.028Z,99103.95
2022-12-08T23:56:37.456Z,99104.22
2022-12-08T23:59:24.874Z,99107.61
